Greenfield, IL (62044)

1:16 PM CDT on September 21, 2014 (GMT -0500)
Piasa | Change Station
CLOSE
Current Station
Personal Weather Station
Location: Piasa, IL
Elevation: 591 ft
Nearby Weather Stations

Elev 591 ft 39.12 °N, 90.14 °W | Updated 14 minutes ago

Clear
Clear
75.4 °F
Feels Like 78 °F
N
14.0
Wind Variable Wind from North
Gusts 26.0 mph

Today
High -- | Low -- °F
--% Chance of Precip.
Yesterday
High -- | Low -- °F
Precip. -- in
6:47 AM 6:59 PM
Waning Crescent, 6% visible
Pressure 30.04 in
Visibility 10.0 miles
Clouds Clear
Heat Index 78 °F
Dew Point 51 °F
Humidity 42%
Rainfall 0.00 in
Snow Depth Not available.
UV 8 out of 12
Pollen 7.30 out of 12
Air Quality Not available.
Flu Activity Not available.
METAR KIJX 211755Z AUTO 31012G21KT 10SM CLR 24/09 A3004 RMK AO2 P0001 60001 T02370088 10239 20148

More Conditions Fewer Conditions

Pressure 30.04 in
Visibility 10.0 miles
Clouds Clear
Heat Index 78 °F
Dew Point 51 °F
Humidity 42%
Rainfall 0.00 in
Snow Depth Not available.
UV 8 out of 12
Pollen 7.30 out of 12
Air Quality Not available.
Flu Activity Not available.
METAR KIJX 211755Z AUTO 31012G21KT 10SM CLR 24/09 A3004 RMK AO2 P0001 60001 T02370088 10239 20148

More Conditions Fewer Conditions

10-Day Weather Forecast

Almanac

Astronomy

Sep. 21, 2014 Rise Set
Actual Time 6:47 AM CDT 6:59 PM CDT
Civil Twilight 6:20 AM CDT 7:26 PM CDT
Nautical Twilight 5:49 AM CDT 7:57 PM CDT
Astronomical Twilight 5:17 AM CDT 8:29 PM CDT
Moon 4:21 AM CDT 5:35 PM CDT
Length of Visible Light 13h 05m
Length of Day
12h 11m
Tomorrow will be 2m 33s shorter.
Waning Crescent, 6% of the Moon is Illuminated
Today
Waning Crescent
Sep 24
New
Oct 1
First Quarter
Oct 8
Full
Oct 15
Last Quarter

Today's Extremes

State Highs State Lows

Community

WunderPhotos

Upload Photos

1,755,213 photos uploaded!

WunderBlogs® & News

Nearby

Snow Depth

Station Depth Elevation
No new snow has been reported.

Earthquake Activity

City Distance Mag. Time & Date
No recent earthquake activity has been reported nearby.
Minimum magnitude displayed is 2.5.

Coastal Water Temperatures

Place Temperature
No Stations Reporting

Nearby Weather Stations